Time;durP1;ratioP1;P1;durP2;ratioP2;P2;SDS_P1;SDS_P2;PMS_P1;PMS_P2;Temp;Humidity;BMP_temperature;BMP_pressure;BME280_temperature;BME280_humidity;BME280_pressure;Samples;Min_cycle;Max_cycle;Signal;HPM_P1;HPM_P2
2021/10/20 00:01:20;;;;;;;4.60;4.13;;;;;;;;;;4935752;29;20532;-68
2021/10/20 00:03:46;;;;;;;4.82;3.97;;;;;;;;;;4936464;29;20055;-68
2021/10/20 00:06:13;;;;;;;8.27;3.95;;;;;;;;;;4936844;29;20499;-68
2021/10/20 00:08:40;;;;;;;7.35;4.05;;;;;;;;;;4936833;29;20103;-68
2021/10/20 00:11:08;;;;;;;7.20;4.20;;;;;;;;;;4936601;29;20412;-68
2021/10/20 00:13:34;;;;;;;4.47;3.70;;;;;;;;;;4936572;29;20574;-68
2021/10/20 00:16:01;;;;;;;7.32;4.32;;;;;;;;;;4936654;29;20491;-68
2021/10/20 00:18:27;;;;;;;6.15;4.68;;;;;;;;;;4936841;29;20058;-68
2021/10/20 00:20:56;;;;;;;7.18;4.30;;;;;;;;;;4936537;29;20115;-68
2021/10/20 00:23:23;;;;;;;7.55;4.43;;;;;;;;;;4936021;29;20127;-68
2021/10/20 00:25:50;;;;;;;6.20;4.00;;;;;;;;;;4936465;29;20103;-68
2021/10/20 00:28:16;;;;;;;6.25;4.03;;;;;;;;;;4936702;29;20110;-68
2021/10/20 00:30:43;;;;;;;6.75;3.70;;;;;;;;;;4936482;29;20463;-68
2021/10/20 00:33:10;;;;;;;7.32;3.90;;;;;;;;;;4936071;29;20479;-68
2021/10/20 00:35:36;;;;;;;7.72;4.38;;;;;;;;;;4936346;29;20098;-68
2021/10/20 00:38:03;;;;;;;6.07;4.68;;;;;;;;;;4936237;29;20193;-68
2021/10/20 00:40:29;;;;;;;5.53;3.67;;;;;;;;;;4936094;29;20413;-68
2021/10/20 00:42:56;;;;;;;6.10;3.80;;;;;;;;;;4935817;29;20107;-68
2021/10/20 00:45:23;;;;;;;4.85;3.92;;;;;;;;;;4936012;29;20495;-68
2021/10/20 00:47:49;;;;;;;5.13;3.63;;;;;;;;;;4917248;29;20119;-69
2021/10/20 00:50:16;;;;;;;5.38;3.80;;;;;;;;;;4916857;29;20060;-69
2021/10/20 00:52:43;;;;;;;5.38;3.58;;;;;;;;;;4916364;29;20056;-69
2021/10/20 00:55:10;;;;;;;5.70;3.80;;;;;;;;;;4917134;29;20103;-68
2021/10/20 00:57:37;;;;;;;4.60;3.78;;;;;;;;;;4917100;29;20060;-68
2021/10/20 01:00:06;;;;;;;5.43;3.60;;;;;;;;;;4925817;29;20103;-68
2021/10/20 01:02:34;;;;;;;5.53;3.75;;;;;;;;;;4935764;29;20451;-68
2021/10/20 01:05:00;;;;;;;6.85;4.07;;;;;;;;;;4935682;29;20538;-69
2021/10/20 01:07:27;;;;;;;5.95;3.90;;;;;;;;;;4934733;29;20060;-69
2021/10/20 01:09:53;;;;;;;5.68;3.72;;;;;;;;;;4935458;29;20047;-69
2021/10/20 01:12:20;;;;;;;5.20;4.00;;;;;;;;;;4934057;29;20110;-69
2021/10/20 01:14:47;;;;;;;7.55;4.53;;;;;;;;;;4935505;29;20047;-69
2021/10/20 01:17:13;;;;;;;6.53;4.15;;;;;;;;;;4935426;29;20107;-69
2021/10/20 01:19:42;;;;;;;4.80;3.90;;;;;;;;;;4934990;29;20048;-69
2021/10/20 01:22:08;;;;;;;5.97;4.10;;;;;;;;;;4918067;29;20065;-69
2021/10/20 01:24:35;;;;;;;5.93;4.05;;;;;;;;;;4935420;29;20111;-69
2021/10/20 01:27:02;;;;;;;6.22;4.03;;;;;;;;;;4918377;29;20048;-69
2021/10/20 01:29:28;;;;;;;5.03;4.05;;;;;;;;;;4935310;29;20103;-68
2021/10/20 01:31:58;;;;;;;5.25;4.35;;;;;;;;;;4934889;29;20059;-68
2021/10/20 01:34:25;;;;;;;5.60;4.20;;;;;;;;;;4935248;29;20059;-68
2021/10/20 01:36:52;;;;;;;5.03;4.15;;;;;;;;;;4935056;29;20091;-68
2021/10/20 01:39:20;;;;;;;6.78;4.22;;;;;;;;;;4935096;29;20055;-68
2021/10/20 01:41:47;;;;;;;6.15;4.35;;;;;;;;;;4934757;29;20052;-68
2021/10/20 01:44:14;;;;;;;7.43;4.45;;;;;;;;;;4934926;29;20554;-68
2021/10/20 01:46:41;;;;;;;6.60;4.20;;;;;;;;;;4934983;29;20048;-68
2021/10/20 01:49:07;;;;;;;9.35;4.78;;;;;;;;;;4934904;29;20067;-68
2021/10/20 01:51:34;;;;;;;7.32;4.78;;;;;;;;;;4934893;29;20060;-68
2021/10/20 01:54:01;;;;;;;5.35;4.20;;;;;;;;;;4934674;29;20507;-68
2021/10/20 01:56:27;;;;;;;6.45;4.78;;;;;;;;;;4934842;29;20566;-68
2021/10/20 01:58:54;;;;;;;5.00;4.18;;;;;;;;;;4934929;29;20106;-68
2021/10/20 02:01:20;;;;;;;5.30;4.55;;;;;;;;;;4934831;29;20296;-68
2021/10/20 02:03:47;;;;;;;7.30;4.55;;;;;;;;;;4933992;29;20062;-68
2021/10/20 02:06:16;;;;;;;5.97;4.20;;;;;;;;;;4934562;29;20059;-68
2021/10/20 02:08:43;;;;;;;6.25;4.00;;;;;;;;;;4934826;29;20055;-68
2021/10/20 02:11:10;;;;;;;5.20;3.92;;;;;;;;;;4917838;29;20059;-68
2021/10/20 02:13:38;;;;;;;6.28;3.90;;;;;;;;;;4934510;29;20055;-68
2021/10/20 02:16:05;;;;;;;5.13;3.92;;;;;;;;;;4934232;29;20095;-68
2021/10/20 02:18:32;;;;;;;6.03;4.10;;;;;;;;;;4934561;29;20554;-68
2021/10/20 02:20:59;;;;;;;5.97;4.05;;;;;;;;;;4934625;29;20059;-68
2021/10/20 02:23:26;;;;;;;7.07;4.50;;;;;;;;;;4917420;29;20474;-68
2021/10/20 02:25:53;;;;;;;6.25;4.28;;;;;;;;;;4934327;29;20048;-68
2021/10/20 02:28:20;;;;;;;9.45;5.25;;;;;;;;;;4934427;29;20110;-68
2021/10/20 02:30:46;;;;;;;5.57;3.92;;;;;;;;;;4934337;29;20051;-68
2021/10/20 02:33:13;;;;;;;5.30;4.50;;;;;;;;;;4934068;29;20126;-68
2021/10/20 02:35:40;;;;;;;5.93;4.10;;;;;;;;;;4934582;29;20483;-68
2021/10/20 02:38:06;;;;;;;7.00;4.47;;;;;;;;;;4917198;29;20052;-68
2021/10/20 02:40:33;;;;;;;6.00;4.47;;;;;;;;;;4934554;29;20078;-68
2021/10/20 02:43:00;;;;;;;9.48;5.45;;;;;;;;;;4934085;29;20048;-68
2021/10/20 02:45:26;;;;;;;6.97;5.22;;;;;;;;;;4934088;29;20059;-69
2021/10/20 02:47:53;;;;;;;6.63;4.38;;;;;;;;;;4917538;29;20051;-69
2021/10/20 02:50:21;;;;;;;7.57;4.32;;;;;;;;;;4934170;29;20107;-68
2021/10/20 02:52:47;;;;;;;5.63;4.20;;;;;;;;;;4934051;29;20081;-68
2021/10/20 02:55:14;;;;;;;10.43;4.30;;;;;;;;;;4934197;29;20061;-68
2021/10/20 02:57:40;;;;;;;6.05;4.32;;;;;;;;;;4934131;29;20048;-68
2021/10/20 03:00:07;;;;;;;5.68;4.07;;;;;;;;;;4933581;29;20087;-68
2021/10/20 03:02:34;;;;;;;5.43;3.95;;;;;;;;;;4932930;29;20043;-68
2021/10/20 03:05:01;;;;;;;5.93;4.30;;;;;;;;;;4934282;29;20055;-69
2021/10/20 03:07:27;;;;;;;6.65;4.20;;;;;;;;;;4933004;29;20562;-68
2021/10/20 03:09:54;;;;;;;5.80;3.95;;;;;;;;;;4934023;29;20056;-68
2021/10/20 03:12:21;;;;;;;4.68;3.45;;;;;;;;;;4933998;29;20115;-68
2021/10/20 03:14:47;;;;;;;4.80;3.80;;;;;;;;;;4934754;29;20087;-68
2021/10/20 03:17:16;;;;;;;6.20;4.18;;;;;;;;;;4937713;29;20082;-68
2021/10/20 03:19:43;;;;;;;5.18;4.30;;;;;;;;;;4937694;29;20051;-68
2021/10/20 03:22:13;;;;;;;9.75;3.38;;;;;;;;;;4937369;29;20518;-68
2021/10/20 03:24:40;;;;;;;5.03;3.80;;;;;;;;;;4937552;29;20459;-68
2021/10/20 03:27:06;;;;;;;6.43;4.05;;;;;;;;;;4937177;29;20075;-68
2021/10/20 03:29:33;;;;;;;7.18;4.07;;;;;;;;;;4937520;29;20455;-68
2021/10/20 03:31:59;;;;;;;5.22;4.20;;;;;;;;;;4937058;29;20111;-68
2021/10/20 03:34:26;;;;;;;4.05;3.45;;;;;;;;;;4937634;29;20098;-68
2021/10/20 03:36:53;;;;;;;5.35;4.00;;;;;;;;;;4937380;29;20455;-68
2021/10/20 03:39:19;;;;;;;6.18;3.55;;;;;;;;;;4937252;29;20052;-68
2021/10/20 03:41:46;;;;;;;4.97;3.60;;;;;;;;;;4937158;29;20467;-68
2021/10/20 03:44:12;;;;;;;5.63;4.00;;;;;;;;;;4937147;29;20131;-68
2021/10/20 03:46:39;;;;;;;6.47;3.88;;;;;;;;;;4936654;29;20114;-68
2021/10/20 03:49:06;;;;;;;5.18;4.20;;;;;;;;;;4937065;29;20205;-68
2021/10/20 03:51:32;;;;;;;5.65;3.65;;;;;;;;;;4937180;29;20102;-68
2021/10/20 03:53:59;;;;;;;4.97;4.03;;;;;;;;;;4937054;29;20083;-68
2021/10/20 03:56:26;;;;;;;7.05;4.10;;;;;;;;;;4937156;29;20080;-68
2021/10/20 03:58:52;;;;;;;11.93;4.72;;;;;;;;;;4936957;29;20569;-68
2021/10/20 04:01:19;;;;;;;6.53;4.50;;;;;;;;;;4936861;29;20056;-68
2021/10/20 04:03:46;;;;;;;4.75;4.10;;;;;;;;;;4936503;29;20051;-68
2021/10/20 04:06:13;;;;;;;4.75;3.78;;;;;;;;;;4936727;29;20123;-68
2021/10/20 04:08:40;;;;;;;6.47;4.20;;;;;;;;;;4936778;29;20055;-68
2021/10/20 04:11:07;;;;;;;5.30;4.10;;;;;;;;;;4936623;29;20455;-68
2021/10/20 04:13:33;;;;;;;5.90;4.03;;;;;;;;;;4936269;29;20051;-68
2021/10/20 04:16:00;;;;;;;8.35;5.15;;;;;;;;;;4936622;29;20052;-68
2021/10/20 04:18:27;;;;;;;7.72;4.72;;;;;;;;;;4936746;29;20051;-68
2021/10/20 04:20:54;;;;;;;8.60;5.93;;;;;;;;;;4936905;29;20051;-68
2021/10/20 04:23:20;;;;;;;11.85;7.72;;;;;;;;;;4936361;29;20051;-68
2021/10/20 04:25:48;;;;;;;18.02;11.50;;;;;;;;;;4936481;29;20494;-68
2021/10/20 04:28:16;;;;;;;19.48;11.52;;;;;;;;;;4936128;29;20126;-68
2021/10/20 04:30:43;;;;;;;20.60;11.10;;;;;;;;;;4936704;29;20079;-68
2021/10/20 04:33:09;;;;;;;17.15;11.05;;;;;;;;;;4936161;29;20055;-68
2021/10/20 04:35:36;;;;;;;19.13;10.18;;;;;;;;;;4936530;29;20502;-68
2021/10/20 04:38:03;;;;;;;13.65;10.23;;;;;;;;;;4936290;29;20051;-68
2021/10/20 04:40:29;;;;;;;11.68;8.23;;;;;;;;;;4936330;29;20573;-68
2021/10/20 04:42:57;;;;;;;11.32;7.55;;;;;;;;;;4936625;29;20056;-68
2021/10/20 04:45:23;;;;;;;7.60;4.40;;;;;;;;;;4936302;29;20059;-68
2021/10/20 04:47:50;;;;;;;8.48;4.90;;;;;;;;;;4936250;29;20048;-68
2021/10/20 04:50:18;;;;;;;8.00;5.60;;;;;;;;;;4936271;29;20066;-68
2021/10/20 04:52:45;;;;;;;8.38;5.68;;;;;;;;;;4935855;29;20051;-68
2021/10/20 04:55:16;;;;;;;9.13;5.65;;;;;;;;;;4936007;29;20054;-68
2021/10/20 04:57:50;;;;;;;6.68;5.05;;;;;;;;;;4936078;29;20134;-68
2021/10/20 05:00:18;;;;;;;8.02;5.72;;;;;;;;;;4936081;29;20055;-68
2021/10/20 05:02:45;;;;;;;9.02;6.07;;;;;;;;;;4935678;29;20056;-68
2021/10/20 05:05:12;;;;;;;17.65;8.30;;;;;;;;;;4935585;29;20067;-67
2021/10/20 05:07:52;;;;;;;11.35;6.95;;;;;;;;;;4935729;29;20051;-68
2021/10/20 05:10:22;;;;;;;12.10;6.78;;;;;;;;;;4935874;29;20055;-68
2021/10/20 05:12:49;;;;;;;9.00;5.43;;;;;;;;;;4935463;29;20063;-68
2021/10/20 05:15:16;;;;;;;6.30;4.40;;;;;;;;;;4946379;29;20111;-68
2021/10/20 05:17:43;;;;;;;7.97;4.50;;;;;;;;;;4931782;29;20107;-68
2021/10/20 05:20:11;;;;;;;6.30;4.15;;;;;;;;;;4935443;29;20121;-68
2021/10/20 05:22:39;;;;;;;6.00;4.00;;;;;;;;;;4935128;29;20493;-68
2021/10/20 05:25:07;;;;;;;6.70;3.58;;;;;;;;;;4935361;29;20060;-68
2021/10/20 05:27:33;;;;;;;5.70;4.15;;;;;;;;;;4935367;29;20455;-68
2021/10/20 05:30:00;;;;;;;5.22;3.85;;;;;;;;;;4935303;29;20047;-68
2021/10/20 05:32:28;;;;;;;6.32;3.92;;;;;;;;;;4935223;29;20133;-68
2021/10/20 05:34:55;;;;;;;6.75;3.92;;;;;;;;;;4935277;29;20052;-68
2021/10/20 05:37:22;;;;;;;5.45;3.95;;;;;;;;;;4935165;29;20055;-68
2021/10/20 05:39:48;;;;;;;9.65;3.80;;;;;;;;;;4934458;29;20051;-68
2021/10/20 05:42:16;;;;;;;7.60;3.80;;;;;;;;;;4934823;29;20514;-68
2021/10/20 05:44:42;;;;;;;8.93;4.22;;;;;;;;;;4935203;29;20459;-69
2021/10/20 05:47:09;;;;;;;5.82;3.60;;;;;;;;;;4934938;29;20055;-70
2021/10/20 05:49:36;;;;;;;8.80;4.05;;;;;;;;;;4935060;29;20055;-68
2021/10/20 05:52:03;;;;;;;7.25;4.05;;;;;;;;;;4934725;29;20403;-68
2021/10/20 05:54:30;;;;;;;5.60;3.97;;;;;;;;;;4932593;29;20514;-68
2021/10/20 05:56:57;;;;;;;7.65;3.97;;;;;;;;;;4933209;29;20051;-68
2021/10/20 05:59:24;;;;;;;6.10;4.18;;;;;;;;;;4933028;29;20051;-68
2021/10/20 06:01:50;;;;;;;7.55;3.95;;;;;;;;;;4932683;29;20055;-68
2021/10/20 06:04:18;;;;;;;9.48;4.47;;;;;;;;;;4933074;29;20082;-68
2021/10/20 06:06:45;;;;;;;10.02;5.32;;;;;;;;;;4932406;29;20048;-68
2021/10/20 06:09:12;;;;;;;7.15;3.85;;;;;;;;;;4932835;29;20431;-68
2021/10/20 06:11:39;;;;;;;8.38;4.30;;;;;;;;;;4932487;29;20060;-68
2021/10/20 06:14:05;;;;;;;11.73;4.82;;;;;;;;;;4932817;29;20103;-68
2021/10/20 06:16:35;;;;;;;11.77;4.47;;;;;;;;;;4933087;29;20055;-68
2021/10/20 06:19:05;;;;;;;7.70;4.20;;;;;;;;;;4932350;29;20056;-68
2021/10/20 06:21:32;;;;;;;6.38;4.40;;;;;;;;;;4932804;29;20471;-68
2021/10/20 06:23:59;;;;;;;9.02;4.88;;;;;;;;;;4932634;29;20064;-68
2021/10/20 06:26:25;;;;;;;11.27;4.95;;;;;;;;;;4932623;29;20500;-68
2021/10/20 06:28:54;;;;;;;9.00;4.80;;;;;;;;;;4932841;29;20055;-69
2021/10/20 06:31:21;;;;;;;9.27;4.88;;;;;;;;;;4932256;29;20048;-68
2021/10/20 06:33:47;;;;;;;7.00;4.50;;;;;;;;;;4932049;29;20055;-68
2021/10/20 06:36:32;;;;;;;11.73;4.68;;;;;;;;;;4932418;29;20051;-68
2021/10/20 06:39:00;;;;;;;8.15;4.55;;;;;;;;;;4932561;29;20420;-68
2021/10/20 06:41:27;;;;;;;6.97;4.95;;;;;;;;;;4931925;29;20083;-68
2021/10/20 06:43:53;;;;;;;7.35;4.32;;;;;;;;;;4932220;29;20056;-67
2021/10/20 06:46:20;;;;;;;9.45;4.20;;;;;;;;;;4931791;29;20052;-68
2021/10/20 06:48:47;;;;;;;8.27;4.80;;;;;;;;;;4932482;29;20052;-66
2021/10/20 06:51:14;;;;;;;5.88;4.00;;;;;;;;;;4935398;29;20419;-67
2021/10/20 06:53:41;;;;;;;7.63;3.97;;;;;;;;;;4935979;29;20392;-69
2021/10/20 06:56:07;;;;;;;6.15;3.75;;;;;;;;;;4936304;29;20062;-69
2021/10/20 06:58:35;;;;;;;7.00;4.65;;;;;;;;;;4936043;29;20511;-69
2021/10/20 07:01:02;;;;;;;7.80;4.03;;;;;;;;;;4936093;29;20066;-69
2021/10/20 07:03:29;;;;;;;5.63;4.47;;;;;;;;;;4935898;29;20075;-69
2021/10/20 07:05:56;;;;;;;5.30;3.85;;;;;;;;;;4936000;29;20083;-69
2021/10/20 07:08:23;;;;;;;5.90;4.30;;;;;;;;;;4936145;29;20499;-70
2021/10/20 07:10:50;;;;;;;7.05;5.28;;;;;;;;;;4936316;29;20048;-69
2021/10/20 07:13:20;;;;;;;4.88;3.75;;;;;;;;;;4927513;29;20067;-72
2021/10/20 07:15:47;;;;;;;7.75;4.20;;;;;;;;;;4932782;29;20052;-71
2021/10/20 07:18:14;;;;;;;7.38;4.07;;;;;;;;;;4938682;29;20522;-68
2021/10/20 07:20:41;;;;;;;7.40;3.95;;;;;;;;;;4921744;29;20103;-71
2021/10/20 07:23:07;;;;;;;6.30;3.17;;;;;;;;;;4940924;29;20054;-69
2021/10/20 07:25:34;;;;;;;8.10;3.65;;;;;;;;;;4945315;29;20507;-70
2021/10/20 07:28:01;;;;;;;4.45;3.00;;;;;;;;;;4945366;29;20087;-69
2021/10/20 07:30:28;;;;;;;3.90;3.40;;;;;;;;;;4943847;29;20047;-69
2021/10/20 07:32:55;;;;;;;4.68;3.30;;;;;;;;;;4943101;29;20183;-69
2021/10/20 07:35:22;;;;;;;5.90;4.53;;;;;;;;;;4945221;29;20102;-68
2021/10/20 07:37:49;;;;;;;5.68;3.47;;;;;;;;;;4947504;29;20052;-70
2021/10/20 07:40:16;;;;;;;4.30;2.95;;;;;;;;;;4938121;29;20087;-71
2021/10/20 07:42:44;;;;;;;7.45;3.20;;;;;;;;;;4928415;29;20510;-70
2021/10/20 07:45:18;;;;;;;5.80;3.67;;;;;;;;;;4944664;29;20060;-73
2021/10/20 07:47:48;;;;;;;4.65;3.42;;;;;;;;;;4941180;29;20510;-73
2021/10/20 07:50:16;;;;;;;4.63;3.25;;;;;;;;;;4944575;29;20055;-70
2021/10/20 07:52:48;;;;;;;4.93;3.10;;;;;;;;;;4944537;29;20059;-69
2021/10/20 07:55:20;;;;;;;4.13;2.92;;;;;;;;;;4945999;29;20047;-70
2021/10/20 07:57:52;;;;;;;3.63;2.50;;;;;;;;;;4930814;29;20047;-72
2021/10/20 08:00:18;;;;;;;6.65;3.35;;;;;;;;;;4942717;29;20051;-72
2021/10/20 08:02:48;;;;;;;6.38;2.55;;;;;;;;;;4939834;29;20056;-72
2021/10/20 08:05:15;;;;;;;4.00;2.60;;;;;;;;;;4940542;29;20396;-70
2021/10/20 08:07:46;;;;;;;4.43;2.35;;;;;;;;;;4940231;29;20514;-71
2021/10/20 08:10:17;;;;;;;3.08;2.70;;;;;;;;;;4944274;29;20581;-72
2021/10/20 08:12:45;;;;;;;6.45;2.55;;;;;;;;;;4946457;29;20070;-73
2021/10/20 08:15:14;;;;;;;2.75;2.30;;;;;;;;;;4942860;29;20809;-74
2021/10/20 08:17:41;;;;;;;4.78;2.58;;;;;;;;;;4943022;29;20055;-70
2021/10/20 08:20:10;;;;;;;5.85;2.60;;;;;;;;;;4941109;29;20055;-69
2021/10/20 08:22:37;;;;;;;4.07;2.33;;;;;;;;;;4941776;29;20057;-70
2021/10/20 08:25:05;;;;;;;7.53;2.65;;;;;;;;;;4944230;29;20086;-69
2021/10/20 08:27:32;;;;;;;2.33;2.10;;;;;;;;;;4941704;29;20106;-69
2021/10/20 08:29:59;;;;;;;3.20;2.63;;;;;;;;;;4944245;29;20059;-69
2021/10/20 08:32:25;;;;;;;4.30;2.83;;;;;;;;;;4945499;29;20043;-68
2021/10/20 08:34:52;;;;;;;4.50;3.10;;;;;;;;;;4944727;29;20047;-69
2021/10/20 08:37:19;;;;;;;4.93;2.63;;;;;;;;;;4938757;29;20048;-69
2021/10/20 08:39:46;;;;;;;3.58;2.90;;;;;;;;;;4942865;29;20048;-69
2021/10/20 08:42:12;;;;;;;6.07;2.72;;;;;;;;;;4926172;29;20055;-68
2021/10/20 08:44:59;;;;;;;3.30;2.55;;;;;;;;;;4940573;29;20666;-69
2021/10/20 08:47:26;;;;;;;5.82;2.53;;;;;;;;;;4951389;29;20040;-69
2021/10/20 08:49:52;;;;;;;4.28;2.40;;;;;;;;;;4907672;29;20055;-69
2021/10/20 08:52:19;;;;;;;4.30;2.63;;;;;;;;;;4941957;29;20047;-69
2021/10/20 08:54:45;;;;;;;5.57;2.85;;;;;;;;;;4926553;29;20055;-69
2021/10/20 08:57:12;;;;;;;3.65;2.92;;;;;;;;;;4925403;29;20568;-69
2021/10/20 08:59:39;;;;;;;4.70;3.70;;;;;;;;;;4940518;29;20110;-69
2021/10/20 09:02:05;;;;;;;3.33;2.38;;;;;;;;;;4941960;29;20499;-69
2021/10/20 09:04:33;;;;;;;4.95;2.78;;;;;;;;;;4942609;29;20498;-69
2021/10/20 09:07:01;;;;;;;3.90;2.80;;;;;;;;;;4943749;29;20228;-69
2021/10/20 09:09:34;;;;;;;4.05;2.58;;;;;;;;;;4941028;29;20102;-69
2021/10/20 09:12:00;;;;;;;4.25;2.50;;;;;;;;;;4942991;29;20111;-69
2021/10/20 09:14:27;;;;;;;6.75;3.03;;;;;;;;;;4943189;28;20051;-69
2021/10/20 09:16:53;;;;;;;3.75;2.85;;;;;;;;;;4940798;29;20063;-69
2021/10/20 09:19:28;;;;;;;5.40;2.42;;;;;;;;;;4944491;29;20040;-68
2021/10/20 09:21:58;;;;;;;4.57;2.35;;;;;;;;;;4939544;29;20059;-68
2021/10/20 09:24:33;;;;;;;3.35;2.45;;;;;;;;;;4942478;29;20549;-68
2021/10/20 09:27:00;;;;;;;4.97;2.60;;;;;;;;;;4942479;29;20502;-67
2021/10/20 09:29:29;;;;;;;5.55;2.42;;;;;;;;;;4911151;29;20253;-68
2021/10/20 09:31:57;;;;;;;3.83;2.63;;;;;;;;;;4941898;29;20047;-67
2021/10/20 09:34:42;;;;;;;2.80;2.10;;;;;;;;;;4936516;29;20047;-68
2021/10/20 09:37:09;;;;;;;4.85;2.53;;;;;;;;;;4940231;29;20051;-70
2021/10/20 09:39:37;;;;;;;4.88;2.50;;;;;;;;;;4938462;29;20055;-69
2021/10/20 09:42:16;;;;;;;6.13;2.22;;;;;;;;;;4937708;29;20111;-70
2021/10/20 09:44:47;;;;;;;3.78;2.42;;;;;;;;;;4941116;29;20058;-70
2021/10/20 09:47:14;;;;;;;3.97;2.80;;;;;;;;;;4938309;29;20206;-69
2021/10/20 09:49:48;;;;;;;5.63;2.13;;;;;;;;;;4938861;29;20514;-69
2021/10/20 09:52:16;;;;;;;3.42;2.13;;;;;;;;;;4938179;29;20111;-69
2021/10/20 09:54:45;;;;;;;3.63;2.30;;;;;;;;;;4934155;29;20060;-69
2021/10/20 09:57:13;;;;;;;4.20;2.33;;;;;;;;;;4937864;29;20058;-69
2021/10/20 09:59:40;;;;;;;5.50;2.25;;;;;;;;;;4942970;29;20529;-70
2021/10/20 10:02:07;;;;;;;5.65;1.92;;;;;;;;;;4924108;29;20062;-70
2021/10/20 10:04:36;;;;;;;3.08;2.47;;;;;;;;;;4946466;29;20146;-70
2021/10/20 10:07:04;;;;;;;4.10;2.00;;;;;;;;;;4938955;29;20055;-69
2021/10/20 10:09:31;;;;;;;5.07;2.45;;;;;;;;;;4943621;29;20110;-69
2021/10/20 10:12:14;;;;;;;5.63;2.13;;;;;;;;;;4936717;29;20106;-69
2021/10/20 10:14:46;;;;;;;2.10;1.90;;;;;;;;;;4926950;29;20158;-73
2021/10/20 10:17:18;;;;;;;5.82;2.08;;;;;;;;;;4939766;29;20070;-74
2021/10/20 10:19:45;;;;;;;5.55;2.58;;;;;;;;;;4940381;29;20106;-73
2021/10/20 10:22:49;;;;;;;3.78;2.20;;;;;;;;;;4938287;29;20057;-73
2021/10/20 10:25:19;;;;;;;2.00;1.67;;;;;;;;;;4924053;29;20422;-74
2021/10/20 10:28:22;;;;;;;3.15;1.67;;;;;;;;;;4938020;29;20055;-75
2021/10/20 10:30:57;;;;;;;2.45;2.13;;;;;;;;;;4938231;29;20058;-73
2021/10/20 10:33:26;;;;;;;1.65;1.50;;;;;;;;;;4970428;23;20053;-72
2021/10/20 10:36:19;;;;;;;2.72;1.75;;;;;;;;;;4958336;28;20051;-75
2021/10/20 10:38:51;;;;;;;3.17;1.95;;;;;;;;;;4964709;28;20054;-70
2021/10/20 10:41:42;;;;;;;2.55;1.90;;;;;;;;;;4963926;28;20153;-78
2021/10/20 10:44:26;;;;;;;3.67;1.70;;;;;;;;;;5164408;23;20039;-72
2021/10/20 10:46:53;;;;;;;3.67;2.28;;;;;;;;;;4937832;29;20418;-70
2021/10/20 10:49:24;;;;;;;3.15;1.98;;;;;;;;;;4940342;29;20040;-69
2021/10/20 10:52:18;;;;;;;3.38;1.77;;;;;;;;;;4938618;29;20056;-69
2021/10/20 10:54:59;;;;;;;2.35;2.08;;;;;;;;;;4903980;29;20123;-69
2021/10/20 10:57:42;;;;;;;1.85;1.42;;;;;;;;;;4918036;29;20052;-69
2021/10/20 11:00:18;;;;;;;2.28;2.00;;;;;;;;;;4921647;29;20047;-68
2021/10/20 11:02:58;;;;;;;3.50;2.78;;;;;;;;;;4921055;29;20099;-73
2021/10/20 11:05:32;;;;;;;3.75;3.30;;;;;;;;;;4917733;29;20103;-71
2021/10/20 11:08:05;;;;;;;5.47;2.90;;;;;;;;;;4907335;29;20063;-76
2021/10/20 11:10:34;;;;;;;4.68;2.55;;;;;;;;;;4905083;29;20058;-74
2021/10/20 11:13:01;;;;;;;6.18;2.70;;;;;;;;;;4886846;29;20420;-71
2021/10/20 11:15:29;;;;;;;3.35;1.90;;;;;;;;;;4906368;29;20416;-71
2021/10/20 11:17:57;;;;;;;3.90;2.05;;;;;;;;;;4919742;29;20075;-69
2021/10/20 11:20:26;;;;;;;2.00;1.73;;;;;;;;;;4905614;29;20052;-70
2021/10/20 11:22:55;;;;;;;3.58;2.20;;;;;;;;;;4921457;29;20375;-70
2021/10/20 11:25:23;;;;;;;3.42;2.10;;;;;;;;;;4921345;29;20048;-74
2021/10/20 11:27:54;;;;;;;3.22;1.60;;;;;;;;;;4919951;29;20130;-72
2021/10/20 11:30:35;;;;;;;5.68;1.80;;;;;;;;;;4904720;29;20056;-75
2021/10/20 11:33:09;;;;;;;1.98;1.77;;;;;;;;;;4959304;23;20044;-76
2021/10/20 11:35:37;;;;;;;2.13;1.88;;;;;;;;;;4875201;29;20331;-76
2021/10/20 11:38:10;;;;;;;1.98;1.67;;;;;;;;;;4890206;29;20052;-76
2021/10/20 11:40:46;;;;;;;2.25;1.75;;;;;;;;;;4889573;29;20453;-76
2021/10/20 11:43:35;;;;;;;2.70;1.60;;;;;;;;;;4871082;29;20516;-76
2021/10/20 11:46:02;;;;;;;3.25;1.75;;;;;;;;;;4883332;29;20053;-76
2021/10/20 11:48:29;;;;;;;4.30;1.88;;;;;;;;;;4905683;29;20131;-76
2021/10/20 11:51:01;;;;;;;2.22;1.95;;;;;;;;;;4889508;29;20497;-76
2021/10/20 11:53:28;;;;;;;2.67;1.60;;;;;;;;;;4888369;29;20475;-78
2021/10/20 11:55:58;;;;;;;10.98;1.88;;;;;;;;;;4893891;29;20052;-79
2021/10/20 11:58:30;;;;;;;3.00;1.70;;;;;;;;;;4890841;29;20072;-84
2021/10/20 12:00:59;;;;;;;2.42;2.22;;;;;;;;;;4910957;29;20057;-83
2021/10/20 12:03:35;;;;;;;3.42;2.08;;;;;;;;;;4900151;29;20058;-82
2021/10/20 12:06:11;;;;;;;2.90;1.85;;;;;;;;;;4896699;29;20139;-82
2021/10/20 12:08:45;;;;;;;2.30;1.58;;;;;;;;;;4899735;29;20044;-83
2021/10/20 12:11:15;;;;;;;2.72;1.38;;;;;;;;;;4897592;29;20096;-80
2021/10/20 12:13:42;;;;;;;1.92;1.70;;;;;;;;;;4894312;29;20109;-87
2021/10/20 12:16:11;;;;;;;4.85;1.60;;;;;;;;;;4858560;29;20063;-88
2021/10/20 12:18:39;;;;;;;3.25;1.65;;;;;;;;;;4888675;29;20116;-87
2021/10/20 12:21:11;;;;;;;3.42;1.73;;;;;;;;;;4883689;29;20059;-87
2021/10/20 12:23:45;;;;;;;2.95;1.38;;;;;;;;;;4885685;29;20059;-85
2021/10/20 12:26:12;;;;;;;3.35;1.52;;;;;;;;;;4897527;29;20065;-84
2021/10/20 12:28:40;;;;;;;2.20;1.58;;;;;;;;;;4895439;29;20063;-82
2021/10/20 12:31:12;;;;;;;1.83;1.30;;;;;;;;;;4882515;29;20203;-85
2021/10/20 12:33:42;;;;;;;2.83;1.77;;;;;;;;;;4914197;29;20056;-83
2021/10/20 12:36:10;;;;;;;1.70;1.17;;;;;;;;;;4862672;29;20482;-82
2021/10/20 12:38:38;;;;;;;4.43;1.88;;;;;;;;;;4872729;29;20052;-83
2021/10/20 12:41:13;;;;;;;1.67;1.40;;;;;;;;;;4877406;29;20088;-83
2021/10/20 12:43:40;;;;;;;2.20;1.60;;;;;;;;;;4899649;29;20064;-83
2021/10/20 12:46:29;;;;;;;2.20;2.00;;;;;;;;;;4883209;29;20456;-83
2021/10/20 12:48:56;;;;;;;2.40;1.60;;;;;;;;;;4897677;29;20053;-83
2021/10/20 12:51:30;;;;;;;3.80;1.85;;;;;;;;;;4890490;29;20056;-82
2021/10/20 12:54:01;;;;;;;2.67;1.70;;;;;;;;;;4875789;29;20060;-82
2021/10/20 12:56:29;;;;;;;9.10;2.00;;;;;;;;;;4880522;29;20067;-82
2021/10/20 12:59:20;;;;;;;5.13;1.83;;;;;;;;;;4874739;29;20044;-81
2021/10/20 13:01:47;;;;;;;3.13;1.50;;;;;;;;;;4898332;29;20056;-82
2021/10/20 13:04:14;;;;;;;3.65;1.60;;;;;;;;;;4879077;29;20146;-82
2021/10/20 13:06:41;;;;;;;1.50;1.40;;;;;;;;;;4895112;29;20064;-82
2021/10/20 13:09:09;;;;;;;5.18;1.90;;;;;;;;;;4868574;29;20507;-84
2021/10/20 13:11:36;;;;;;;4.10;1.70;;;;;;;;;;4876197;29;20052;-84
2021/10/20 13:14:03;;;;;;;5.57;2.40;;;;;;;;;;4904371;29;20058;-84
2021/10/20 13:16:30;;;;;;;3.28;2.20;;;;;;;;;;4897277;29;20044;-86
2021/10/20 13:18:56;;;;;;;3.40;2.30;;;;;;;;;;4893729;29;20057;-84
2021/10/20 13:21:23;;;;;;;5.72;2.80;;;;;;;;;;4891304;29;20051;-84
2021/10/20 13:23:50;;;;;;;2.42;2.22;;;;;;;;;;4899795;29;20068;-84
2021/10/20 13:26:19;;;;;;;3.13;2.60;;;;;;;;;;4910404;29;20063;-83
2021/10/20 13:28:46;;;;;;;2.13;1.95;;;;;;;;;;4905900;29;20139;-85
2021/10/20 13:31:13;;;;;;;2.42;2.10;;;;;;;;;;4896950;29;20144;-84
2021/10/20 13:33:40;;;;;;;3.85;2.17;;;;;;;;;;4884260;29;20068;-83
2021/10/20 13:36:11;;;;;;;3.13;2.15;;;;;;;;;;4868875;29;20061;-80
2021/10/20 13:38:38;;;;;;;5.72;2.08;;;;;;;;;;4902805;29;20116;-80
2021/10/20 13:41:05;;;;;;;4.28;2.05;;;;;;;;;;4903153;29;20075;-81
2021/10/20 13:43:31;;;;;;;3.58;2.35;;;;;;;;;;4901561;29;20599;-77
2021/10/20 13:45:59;;;;;;;1.83;1.73;;;;;;;;;;4881856;29;20060;-79
2021/10/20 13:48:26;;;;;;;3.95;1.92;;;;;;;;;;4880551;29;20444;-79
2021/10/20 13:50:53;;;;;;;2.28;1.60;;;;;;;;;;4868101;29;20332;-80
2021/10/20 13:53:19;;;;;;;3.47;2.25;;;;;;;;;;4852355;29;20362;-79
2021/10/20 13:55:47;;;;;;;3.53;1.83;;;;;;;;;;4870830;29;20060;-79
2021/10/20 13:58:15;;;;;;;4.57;1.88;;;;;;;;;;4891317;29;20066;-79
2021/10/20 14:00:42;;;;;;;1.83;1.73;;;;;;;;;;4870794;29;20473;-79
2021/10/20 14:03:10;;;;;;;3.65;1.90;;;;;;;;;;4901644;29;20052;-80
2021/10/20 14:05:38;;;;;;;3.53;1.73;;;;;;;;;;4872096;29;20152;-80
2021/10/20 14:08:06;;;;;;;5.80;1.92;;;;;;;;;;4882986;29;20569;-79
2021/10/20 14:10:32;;;;;;;3.22;1.40;;;;;;;;;;4887834;29;20062;-80
2021/10/20 14:12:59;;;;;;;2.00;1.50;;;;;;;;;;4899103;29;20067;-79
2021/10/20 14:15:26;;;;;;;2.45;1.35;;;;;;;;;;4875850;29;20534;-79
2021/10/20 14:17:54;;;;;;;2.40;1.67;;;;;;;;;;4889845;29;20080;-80
2021/10/20 14:20:22;;;;;;;2.15;1.73;;;;;;;;;;4890326;29;20056;-79
2021/10/20 14:22:49;;;;;;;4.28;1.70;;;;;;;;;;4870258;29;20490;-80
2021/10/20 14:25:18;;;;;;;2.38;1.70;;;;;;;;;;4871184;29;20509;-80
2021/10/20 14:27:45;;;;;;;1.58;1.48;;;;;;;;;;4886433;29;20055;-79
2021/10/20 14:30:11;;;;;;;2.20;1.83;;;;;;;;;;4886776;29;20048;-79
2021/10/20 14:32:39;;;;;;;6.80;2.90;;;;;;;;;;4859878;29;1220427;-79
2021/10/20 14:35:06;;;;;;;2.60;2.05;;;;;;;;;;4870777;29;20076;-79
2021/10/20 14:37:37;;;;;;;2.67;2.03;;;;;;;;;;4867502;29;20064;-80
2021/10/20 14:40:05;;;;;;;1.88;1.67;;;;;;;;;;4888016;29;20087;-79
2021/10/20 14:42:34;;;;;;;2.38;1.83;;;;;;;;;;4874742;29;20135;-80
2021/10/20 14:45:01;;;;;;;1.75;1.50;;;;;;;;;;4889438;29;20500;-80
2021/10/20 14:47:32;;;;;;;3.22;1.60;;;;;;;;;;4872819;29;20490;-79
2021/10/20 14:49:59;;;;;;;3.22;1.83;;;;;;;;;;4906343;29;20056;-79
2021/10/20 14:52:26;;;;;;;3.78;1.83;;;;;;;;;;4874721;29;20055;-79